sensor_id;sensor_type;location;lat;lon;timestamp;P1;durP1;ratioP1;P2;durP2;ratioP2
3779;SDS011;1905;52.482;9.802;2024-03-23T00:54:28;21.17;;;7.03;;
3779;SDS011;1905;52.482;9.802;2024-03-23T00:56:54;12.73;;;5.87;;
3779;SDS011;1905;52.482;9.802;2024-03-23T00:59:21;12.63;;;5.33;;
3779;SDS011;1905;52.482;9.802;2024-03-23T01:01:52;15.47;;;5.93;;
3779;SDS011;1905;52.482;9.802;2024-03-23T01:04:19;15.83;;;6.30;;
3779;SDS011;1905;52.482;9.802;2024-03-23T01:06:46;16.00;;;6.13;;
3779;SDS011;1905;52.482;9.802;2024-03-23T01:09:14;21.30;;;9.10;;
3779;SDS011;1905;52.482;9.802;2024-03-23T01:11:40;17.73;;;5.80;;
3779;SDS011;1905;52.482;9.802;2024-03-23T01:14:08;20.40;;;6.27;;
3779;SDS011;1905;52.482;9.802;2024-03-23T01:16:34;17.27;;;6.60;;
3779;SDS011;1905;52.482;9.802;2024-03-23T01:19:02;17.60;;;6.83;;
3779;SDS011;1905;52.482;9.802;2024-03-23T01:21:28;14.70;;;5.80;;
3779;SDS011;1905;52.482;9.802;2024-03-23T01:23:55;16.27;;;6.73;;
3779;SDS011;1905;52.482;9.802;2024-03-23T01:26:21;15.13;;;6.73;;
3779;SDS011;1905;52.482;9.802;2024-03-23T01:28:48;21.07;;;7.03;;
3779;SDS011;1905;52.482;9.802;2024-03-23T01:31:14;18.40;;;6.33;;
3779;SDS011;1905;52.482;9.802;2024-03-23T01:33:41;16.80;;;5.77;;
3779;SDS011;1905;52.482;9.802;2024-03-23T01:36:07;15.10;;;6.60;;
3779;SDS011;1905;52.482;9.802;2024-03-23T01:38:38;17.97;;;6.03;;
3779;SDS011;1905;52.482;9.802;2024-03-23T01:41:05;17.83;;;6.53;;
3779;SDS011;1905;52.482;9.802;2024-03-23T01:43:32;18.23;;;6.77;;
3779;SDS011;1905;52.482;9.802;2024-03-23T01:45:58;17.50;;;6.87;;
3779;SDS011;1905;52.482;9.802;2024-03-23T01:48:26;24.87;;;6.70;;
3779;SDS011;1905;52.482;9.802;2024-03-23T01:50:52;20.03;;;5.90;;
3779;SDS011;1905;52.482;9.802;2024-03-23T01:53:19;19.77;;;6.90;;
3779;SDS011;1905;52.482;9.802;2024-03-23T01:55:49;16.20;;;5.30;;
3779;SDS011;1905;52.482;9.802;2024-03-23T01:58:17;17.20;;;6.90;;
3779;SDS011;1905;52.482;9.802;2024-03-23T02:00:44;12.93;;;5.33;;
3779;SDS011;1905;52.482;9.802;2024-03-23T02:03:26;17.53;;;5.67;;
3779;SDS011;1905;52.482;9.802;2024-03-23T02:05:54;15.10;;;4.87;;
3779;SDS011;1905;52.482;9.802;2024-03-23T02:08:23;19.10;;;6.57;;
3779;SDS011;1905;52.482;9.802;2024-03-23T02:10:49;13.60;;;5.03;;
3779;SDS011;1905;52.482;9.802;2024-03-23T02:13:18;12.03;;;4.83;;
3779;SDS011;1905;52.482;9.802;2024-03-23T02:15:45;11.23;;;4.23;;
3779;SDS011;1905;52.482;9.802;2024-03-23T02:18:12;14.47;;;4.50;;
3779;SDS011;1905;52.482;9.802;2024-03-23T02:20:38;16.53;;;5.20;;
3779;SDS011;1905;52.482;9.802;2024-03-23T02:23:05;13.10;;;4.83;;
3779;SDS011;1905;52.482;9.802;2024-03-23T02:25:38;11.37;;;4.40;;
3779;SDS011;1905;52.482;9.802;2024-03-23T02:28:05;16.00;;;4.83;;
3779;SDS011;1905;52.482;9.802;2024-03-23T02:30:31;13.40;;;4.60;;
3779;SDS011;1905;52.482;9.802;2024-03-23T02:32:58;11.07;;;4.50;;
3779;SDS011;1905;52.482;9.802;2024-03-23T02:35:24;14.70;;;5.30;;
3779;SDS011;1905;52.482;9.802;2024-03-23T02:37:51;14.33;;;4.57;;
3779;SDS011;1905;52.482;9.802;2024-03-23T02:40:19;17.07;;;4.37;;
3779;SDS011;1905;52.482;9.802;2024-03-23T02:42:46;13.30;;;5.43;;
3779;SDS011;1905;52.482;9.802;2024-03-23T02:45:12;14.47;;;4.23;;
3779;SDS011;1905;52.482;9.802;2024-03-23T02:47:40;13.50;;;5.60;;
3779;SDS011;1905;52.482;9.802;2024-03-23T02:50:06;13.20;;;5.27;;
3779;SDS011;1905;52.482;9.802;2024-03-23T02:52:34;14.47;;;4.83;;
3779;SDS011;1905;52.482;9.802;2024-03-23T02:55:01;15.23;;;5.43;;
3779;SDS011;1905;52.482;9.802;2024-03-23T02:57:28;14.13;;;4.57;;
3779;SDS011;1905;52.482;9.802;2024-03-23T02:59:55;14.00;;;4.67;;
3779;SDS011;1905;52.482;9.802;2024-03-23T03:02:23;16.93;;;4.97;;
3779;SDS011;1905;52.482;9.802;2024-03-23T03:04:49;14.70;;;6.00;;
3779;SDS011;1905;52.482;9.802;2024-03-23T03:07:16;19.23;;;5.03;;
3779;SDS011;1905;52.482;9.802;2024-03-23T03:09:42;12.93;;;5.07;;
3779;SDS011;1905;52.482;9.802;2024-03-23T03:12:09;13.60;;;4.93;;
3779;SDS011;1905;52.482;9.802;2024-03-23T03:14:35;13.03;;;4.80;;
3779;SDS011;1905;52.482;9.802;2024-03-23T03:17:03;13.47;;;4.60;;
3779;SDS011;1905;52.482;9.802;2024-03-23T03:19:30;12.50;;;4.03;;
3779;SDS011;1905;52.482;9.802;2024-03-23T03:21:57;19.30;;;4.27;;
3779;SDS011;1905;52.482;9.802;2024-03-23T03:24:24;11.20;;;4.10;;
3779;SDS011;1905;52.482;9.802;2024-03-23T03:26:51;12.63;;;4.93;;
3779;SDS011;1905;52.482;9.802;2024-03-23T03:29:17;16.23;;;4.07;;
3779;SDS011;1905;52.482;9.802;2024-03-23T03:31:45;14.37;;;3.90;;
3779;SDS011;1905;52.482;9.802;2024-03-23T03:34:11;17.03;;;4.03;;
3779;SDS011;1905;52.482;9.802;2024-03-23T03:36:38;16.07;;;3.60;;
3779;SDS011;1905;52.482;9.802;2024-03-23T03:39:04;10.60;;;3.70;;
3779;SDS011;1905;52.482;9.802;2024-03-23T03:41:31;11.30;;;3.97;;
3779;SDS011;1905;52.482;9.802;2024-03-23T03:43:58;11.70;;;3.50;;
3779;SDS011;1905;52.482;9.802;2024-03-23T03:46:27;9.30;;;3.03;;
3779;SDS011;1905;52.482;9.802;2024-03-23T03:48:54;12.70;;;3.20;;
3779;SDS011;1905;52.482;9.802;2024-03-23T03:51:22;11.80;;;3.20;;
3779;SDS011;1905;52.482;9.802;2024-03-23T03:53:48;8.43;;;2.57;;
3779;SDS011;1905;52.482;9.802;2024-03-23T03:56:15;9.33;;;3.03;;
3779;SDS011;1905;52.482;9.802;2024-03-23T03:58:41;11.87;;;3.47;;
3779;SDS011;1905;52.482;9.802;2024-03-23T04:01:08;10.77;;;3.37;;
3779;SDS011;1905;52.482;9.802;2024-03-23T04:03:34;11.27;;;2.90;;
3779;SDS011;1905;52.482;9.802;2024-03-23T04:06:01;13.50;;;3.37;;
3779;SDS011;1905;52.482;9.802;2024-03-23T04:08:28;13.00;;;3.13;;
3779;SDS011;1905;52.482;9.802;2024-03-23T04:10:55;14.20;;;4.23;;
3779;SDS011;1905;52.482;9.802;2024-03-23T04:13:21;18.40;;;3.70;;
3779;SDS011;1905;52.482;9.802;2024-03-23T04:15:48;8.50;;;2.87;;
3779;SDS011;1905;52.482;9.802;2024-03-23T04:18:14;8.57;;;3.20;;
3779;SDS011;1905;52.482;9.802;2024-03-23T04:20:41;14.57;;;2.80;;
3779;SDS011;1905;52.482;9.802;2024-03-23T04:23:07;9.67;;;2.90;;
3779;SDS011;1905;52.482;9.802;2024-03-23T04:25:34;10.43;;;2.77;;
3779;SDS011;1905;52.482;9.802;2024-03-23T04:28:00;11.87;;;3.47;;
3779;SDS011;1905;52.482;9.802;2024-03-23T04:30:27;20.03;;;4.10;;
3779;SDS011;1905;52.482;9.802;2024-03-23T04:32:54;15.43;;;3.57;;
3779;SDS011;1905;52.482;9.802;2024-03-23T04:35:22;12.70;;;2.63;;
3779;SDS011;1905;52.482;9.802;2024-03-23T04:37:50;11.93;;;2.80;;
3779;SDS011;1905;52.482;9.802;2024-03-23T04:40:18;13.30;;;3.80;;
3779;SDS011;1905;52.482;9.802;2024-03-23T04:42:44;8.60;;;2.80;;
3779;SDS011;1905;52.482;9.802;2024-03-23T04:45:11;12.73;;;3.90;;
3779;SDS011;1905;52.482;9.802;2024-03-23T04:47:38;14.07;;;3.70;;
3779;SDS011;1905;52.482;9.802;2024-03-23T04:50:06;11.60;;;3.20;;
3779;SDS011;1905;52.482;9.802;2024-03-23T04:52:37;12.60;;;3.30;;
3779;SDS011;1905;52.482;9.802;2024-03-23T04:55:04;10.00;;;2.87;;
3779;SDS011;1905;52.482;9.802;2024-03-23T04:57:32;10.70;;;3.17;;
3779;SDS011;1905;52.482;9.802;2024-03-23T04:59:58;10.93;;;3.80;;
3779;SDS011;1905;52.482;9.802;2024-03-23T05:02:27;9.40;;;3.47;;
3779;SDS011;1905;52.482;9.802;2024-03-23T05:04:53;9.70;;;2.97;;
3779;SDS011;1905;52.482;9.802;2024-03-23T05:07:20;9.57;;;2.87;;
3779;SDS011;1905;52.482;9.802;2024-03-23T05:09:46;13.83;;;3.83;;
3779;SDS011;1905;52.482;9.802;2024-03-23T05:12:14;9.90;;;3.30;;
3779;SDS011;1905;52.482;9.802;2024-03-23T05:14:40;12.40;;;3.50;;
3779;SDS011;1905;52.482;9.802;2024-03-23T05:17:08;11.67;;;3.30;;
3779;SDS011;1905;52.482;9.802;2024-03-23T05:19:34;10.00;;;3.37;;
3779;SDS011;1905;52.482;9.802;2024-03-23T05:22:01;8.70;;;2.10;;
3779;SDS011;1905;52.482;9.802;2024-03-23T05:24:27;11.53;;;2.63;;
3779;SDS011;1905;52.482;9.802;2024-03-23T05:26:55;13.67;;;3.47;;
3779;SDS011;1905;52.482;9.802;2024-03-23T05:29:21;11.70;;;2.10;;
3779;SDS011;1905;52.482;9.802;2024-03-23T05:31:49;10.90;;;2.83;;
3779;SDS011;1905;52.482;9.802;2024-03-23T05:34:17;8.10;;;2.40;;
3779;SDS011;1905;52.482;9.802;2024-03-23T05:36:45;6.67;;;1.67;;
3779;SDS011;1905;52.482;9.802;2024-03-23T05:39:11;13.63;;;2.03;;
3779;SDS011;1905;52.482;9.802;2024-03-23T05:41:42;8.60;;;2.20;;
3779;SDS011;1905;52.482;9.802;2024-03-23T05:44:08;12.17;;;2.13;;
3779;SDS011;1905;52.482;9.802;2024-03-23T05:46:36;8.90;;;2.20;;
3779;SDS011;1905;52.482;9.802;2024-03-23T05:49:02;7.10;;;1.97;;
3779;SDS011;1905;52.482;9.802;2024-03-23T05:51:30;11.20;;;1.83;;
3779;SDS011;1905;52.482;9.802;2024-03-23T05:53:56;8.00;;;2.17;;
3779;SDS011;1905;52.482;9.802;2024-03-23T05:56:23;6.47;;;2.13;;
3779;SDS011;1905;52.482;9.802;2024-03-23T05:58:51;12.00;;;2.53;;
3779;SDS011;1905;52.482;9.802;2024-03-23T06:01:18;8.57;;;1.83;;
3779;SDS011;1905;52.482;9.802;2024-03-23T06:03:44;10.23;;;1.97;;
3779;SDS011;1905;52.482;9.802;2024-03-23T06:06:11;6.60;;;2.03;;
3779;SDS011;1905;52.482;9.802;2024-03-23T06:08:38;11.10;;;2.20;;
3779;SDS011;1905;52.482;9.802;2024-03-23T06:11:08;7.73;;;1.50;;
3779;SDS011;1905;52.482;9.802;2024-03-23T06:13:35;8.97;;;1.93;;
3779;SDS011;1905;52.482;9.802;2024-03-23T06:16:02;6.87;;;1.63;;
3779;SDS011;1905;52.482;9.802;2024-03-23T06:18:29;8.30;;;2.23;;
3779;SDS011;1905;52.482;9.802;2024-03-23T06:20:57;9.20;;;2.13;;
3779;SDS011;1905;52.482;9.802;2024-03-23T06:23:23;8.90;;;1.73;;
3779;SDS011;1905;52.482;9.802;2024-03-23T06:25:50;9.47;;;1.93;;
3779;SDS011;1905;52.482;9.802;2024-03-23T06:28:16;12.70;;;1.77;;
3779;SDS011;1905;52.482;9.802;2024-03-23T06:30:44;8.73;;;1.63;;
3779;SDS011;1905;52.482;9.802;2024-03-23T06:33:10;9.93;;;2.03;;
3779;SDS011;1905;52.482;9.802;2024-03-23T06:35:38;11.30;;;2.03;;
3779;SDS011;1905;52.482;9.802;2024-03-23T06:38:04;10.20;;;2.23;;
3779;SDS011;1905;52.482;9.802;2024-03-23T06:40:32;7.50;;;1.77;;
3779;SDS011;1905;52.482;9.802;2024-03-23T06:42:58;9.47;;;1.97;;
3779;SDS011;1905;52.482;9.802;2024-03-23T06:45:26;9.13;;;1.93;;
3779;SDS011;1905;52.482;9.802;2024-03-23T06:47:52;9.13;;;2.20;;
3779;SDS011;1905;52.482;9.802;2024-03-23T06:50:21;8.60;;;2.00;;
3779;SDS011;1905;52.482;9.802;2024-03-23T06:52:49;8.73;;;2.97;;
3779;SDS011;1905;52.482;9.802;2024-03-23T06:55:16;10.80;;;2.50;;
3779;SDS011;1905;52.482;9.802;2024-03-23T06:57:42;10.50;;;2.63;;
3779;SDS011;1905;52.482;9.802;2024-03-23T07:00:10;9.60;;;2.93;;
3779;SDS011;1905;52.482;9.802;2024-03-23T07:02:37;10.10;;;3.17;;
3779;SDS011;1905;52.482;9.802;2024-03-23T07:05:04;10.87;;;3.30;;
3779;SDS011;1905;52.482;9.802;2024-03-23T07:07:31;21.60;;;3.27;;
3779;SDS011;1905;52.482;9.802;2024-03-23T07:09:58;10.60;;;3.10;;
3779;SDS011;1905;52.482;9.802;2024-03-23T07:12:23;15.13;;;4.20;;
3779;SDS011;1905;52.482;9.802;2024-03-23T07:14:50;17.50;;;4.37;;
3779;SDS011;1905;52.482;9.802;2024-03-23T07:17:16;12.53;;;3.20;;
3779;SDS011;1905;52.482;9.802;2024-03-23T07:19:44;13.03;;;3.90;;
3779;SDS011;1905;52.482;9.802;2024-03-23T07:22:10;12.57;;;3.30;;
3779;SDS011;1905;52.482;9.802;2024-03-23T07:24:38;11.33;;;3.93;;
3779;SDS011;1905;52.482;9.802;2024-03-23T07:27:05;14.30;;;4.10;;
3779;SDS011;1905;52.482;9.802;2024-03-23T07:29:35;14.73;;;4.00;;
3779;SDS011;1905;52.482;9.802;2024-03-23T07:32:02;22.77;;;4.67;;
3779;SDS011;1905;52.482;9.802;2024-03-23T07:34:29;15.97;;;6.20;;
3779;SDS011;1905;52.482;9.802;2024-03-23T07:36:55;15.70;;;5.47;;
3779;SDS011;1905;52.482;9.802;2024-03-23T07:39:22;15.83;;;5.07;;
3779;SDS011;1905;52.482;9.802;2024-03-23T07:41:48;13.60;;;4.40;;
3779;SDS011;1905;52.482;9.802;2024-03-23T07:44:15;16.67;;;5.90;;
3779;SDS011;1905;52.482;9.802;2024-03-23T07:46:41;21.93;;;4.67;;
3779;SDS011;1905;52.482;9.802;2024-03-23T07:49:09;19.37;;;5.73;;
3779;SDS011;1905;52.482;9.802;2024-03-23T07:51:35;21.73;;;6.33;;
3779;SDS011;1905;52.482;9.802;2024-03-23T07:54:04;21.50;;;5.97;;
3779;SDS011;1905;52.482;9.802;2024-03-23T07:56:31;15.97;;;5.97;;
3779;SDS011;1905;52.482;9.802;2024-03-23T07:58:58;14.50;;;5.60;;
3779;SDS011;1905;52.482;9.802;2024-03-23T08:01:25;14.70;;;5.90;;
3779;SDS011;1905;52.482;9.802;2024-03-23T08:03:52;16.37;;;5.30;;
3779;SDS011;1905;52.482;9.802;2024-03-23T08:06:22;18.57;;;5.53;;
3779;SDS011;1905;52.482;9.802;2024-03-23T08:08:51;23.27;;;6.70;;
3779;SDS011;1905;52.482;9.802;2024-03-23T08:11:27;22.53;;;5.80;;
3779;SDS011;1905;52.482;9.802;2024-03-23T08:13:56;20.03;;;5.33;;
3779;SDS011;1905;52.482;9.802;2024-03-23T08:16:23;20.03;;;6.17;;
3779;SDS011;1905;52.482;9.802;2024-03-23T08:18:53;18.27;;;5.00;;
3779;SDS011;1905;52.482;9.802;2024-03-23T08:21:21;21.67;;;6.27;;
3779;SDS011;1905;52.482;9.802;2024-03-23T08:23:48;17.33;;;6.17;;
3779;SDS011;1905;52.482;9.802;2024-03-23T08:26:15;31.37;;;8.60;;
3779;SDS011;1905;52.482;9.802;2024-03-23T08:28:43;22.57;;;7.10;;
3779;SDS011;1905;52.482;9.802;2024-03-23T08:31:10;13.57;;;5.60;;
3779;SDS011;1905;52.482;9.802;2024-03-23T08:33:38;17.33;;;6.20;;
3779;SDS011;1905;52.482;9.802;2024-03-23T08:36:06;24.83;;;6.40;;
3779;SDS011;1905;52.482;9.802;2024-03-23T08:38:34;15.57;;;6.80;;
3779;SDS011;1905;52.482;9.802;2024-03-23T08:41:01;15.57;;;5.90;;
3779;SDS011;1905;52.482;9.802;2024-03-23T08:43:30;19.47;;;5.87;;
3779;SDS011;1905;52.482;9.802;2024-03-23T08:46:07;16.67;;;5.53;;
3779;SDS011;1905;52.482;9.802;2024-03-23T08:48:35;17.50;;;5.70;;
3779;SDS011;1905;52.482;9.802;2024-03-23T08:51:02;21.43;;;6.33;;
3779;SDS011;1905;52.482;9.802;2024-03-23T08:53:30;15.10;;;5.77;;
3779;SDS011;1905;52.482;9.802;2024-03-23T08:55:56;20.80;;;5.90;;
3779;SDS011;1905;52.482;9.802;2024-03-23T08:58:24;21.30;;;6.40;;
3779;SDS011;1905;52.482;9.802;2024-03-23T09:00:52;24.90;;;5.80;;
3779;SDS011;1905;52.482;9.802;2024-03-23T09:03:24;19.23;;;5.40;;
3779;SDS011;1905;52.482;9.802;2024-03-23T09:05:51;13.77;;;4.60;;
3779;SDS011;1905;52.482;9.802;2024-03-23T09:08:20;19.20;;;4.73;;
3779;SDS011;1905;52.482;9.802;2024-03-23T09:10:47;17.53;;;5.07;;
3779;SDS011;1905;52.482;9.802;2024-03-23T09:13:14;17.33;;;5.80;;
3779;SDS011;1905;52.482;9.802;2024-03-23T09:15:47;18.50;;;5.30;;
3779;SDS011;1905;52.482;9.802;2024-03-23T09:18:16;17.87;;;4.87;;
3779;SDS011;1905;52.482;9.802;2024-03-23T09:20:42;18.50;;;4.77;;
3779;SDS011;1905;52.482;9.802;2024-03-23T09:23:11;25.73;;;6.83;;
3779;SDS011;1905;52.482;9.802;2024-03-23T09:25:37;18.70;;;5.57;;
3779;SDS011;1905;52.482;9.802;2024-03-23T09:28:05;24.43;;;6.37;;
3779;SDS011;1905;52.482;9.802;2024-03-23T09:30:34;16.57;;;6.67;;
3779;SDS011;1905;52.482;9.802;2024-03-23T09:33:08;22.20;;;6.90;;
3779;SDS011;1905;52.482;9.802;2024-03-23T09:35:40;21.30;;;4.83;;
3779;SDS011;1905;52.482;9.802;2024-03-23T09:38:10;15.17;;;5.80;;
3779;SDS011;1905;52.482;9.802;2024-03-23T09:40:42;12.40;;;4.03;;
3779;SDS011;1905;52.482;9.802;2024-03-23T09:43:09;14.60;;;3.40;;
3779;SDS011;1905;52.482;9.802;2024-03-23T09:45:36;13.77;;;3.93;;
3779;SDS011;1905;52.482;9.802;2024-03-23T09:48:06;12.03;;;3.70;;
3779;SDS011;1905;52.482;9.802;2024-03-23T09:50:35;13.13;;;4.07;;
3779;SDS011;1905;52.482;9.802;2024-03-23T09:53:12;12.60;;;3.30;;
3779;SDS011;1905;52.482;9.802;2024-03-23T09:55:43;15.17;;;3.73;;
3779;SDS011;1905;52.482;9.802;2024-03-23T09:58:17;14.07;;;4.13;;
3779;SDS011;1905;52.482;9.802;2024-03-23T10:00:44;15.93;;;4.87;;
3779;SDS011;1905;52.482;9.802;2024-03-23T10:03:11;19.90;;;5.07;;
3779;SDS011;1905;52.482;9.802;2024-03-23T10:05:37;18.07;;;4.00;;
3779;SDS011;1905;52.482;9.802;2024-03-23T10:10:40;8.97;;;2.10;;
3779;SDS011;1905;52.482;9.802;2024-03-23T10:13:07;8.30;;;2.20;;
3779;SDS011;1905;52.482;9.802;2024-03-23T10:15:35;10.37;;;2.77;;
3779;SDS011;1905;52.482;9.802;2024-03-23T10:18:18;11.53;;;3.00;;
3779;SDS011;1905;52.482;9.802;2024-03-23T10:20:50;14.47;;;2.63;;
3779;SDS011;1905;52.482;9.802;2024-03-23T10:23:18;10.40;;;2.60;;
3779;SDS011;1905;52.482;9.802;2024-03-23T10:25:44;9.53;;;2.60;;
3779;SDS011;1905;52.482;9.802;2024-03-23T10:28:12;11.30;;;2.93;;
3779;SDS011;1905;52.482;9.802;2024-03-23T10:30:38;8.03;;;2.40;;
3779;SDS011;1905;52.482;9.802;2024-03-23T10:33:09;8.23;;;2.37;;
3779;SDS011;1905;52.482;9.802;2024-03-23T10:35:36;7.50;;;2.30;;
3779;SDS011;1905;52.482;9.802;2024-03-23T10:38:05;9.13;;;2.27;;
3779;SDS011;1905;52.482;9.802;2024-03-23T10:40:35;9.10;;;2.60;;
3779;SDS011;1905;52.482;9.802;2024-03-23T10:43:03;8.33;;;2.53;;
3779;SDS011;1905;52.482;9.802;2024-03-23T10:45:30;9.57;;;2.80;;
3779;SDS011;1905;52.482;9.802;2024-03-23T10:47:57;9.80;;;2.37;;
3779;SDS011;1905;52.482;9.802;2024-03-23T10:50:23;11.70;;;2.63;;
3779;SDS011;1905;52.482;9.802;2024-03-23T10:52:51;9.73;;;1.40;;
3779;SDS011;1905;52.482;9.802;2024-03-23T10:55:19;13.30;;;3.00;;
3779;SDS011;1905;52.482;9.802;2024-03-23T10:57:50;7.13;;;2.53;;
3779;SDS011;1905;52.482;9.802;2024-03-23T11:00:19;7.20;;;2.10;;
3779;SDS011;1905;52.482;9.802;2024-03-23T11:02:49;13.97;;;2.67;;
3779;SDS011;1905;52.482;9.802;2024-03-23T11:07:55;9.80;;;1.97;;
3779;SDS011;1905;52.482;9.802;2024-03-23T11:10:24;7.93;;;1.70;;
3779;SDS011;1905;52.482;9.802;2024-03-23T11:12:54;8.50;;;2.47;;
3779;SDS011;1905;52.482;9.802;2024-03-23T11:15:21;8.27;;;1.83;;
3779;SDS011;1905;52.482;9.802;2024-03-23T11:18:04;12.10;;;2.20;;
3779;SDS011;1905;52.482;9.802;2024-03-23T11:20:34;6.90;;;1.60;;
3779;SDS011;1905;52.482;9.802;2024-03-23T11:23:01;12.33;;;2.97;;
3779;SDS011;1905;52.482;9.802;2024-03-23T11:25:28;8.57;;;2.80;;
3779;SDS011;1905;52.482;9.802;2024-03-23T11:28:12;6.60;;;1.80;;
3779;SDS011;1905;52.482;9.802;2024-03-23T11:30:39;6.73;;;1.43;;
3779;SDS011;1905;52.482;9.802;2024-03-23T11:33:05;7.87;;;1.80;;
3779;SDS011;1905;52.482;9.802;2024-03-23T11:40:46;6.37;;;1.67;;
3779;SDS011;1905;52.482;9.802;2024-03-23T11:43:13;8.93;;;2.13;;
3779;SDS011;1905;52.482;9.802;2024-03-23T11:45:45;9.20;;;1.70;;
3779;SDS011;1905;52.482;9.802;2024-03-23T11:48:21;9.30;;;2.20;;
3779;SDS011;1905;52.482;9.802;2024-03-23T11:50:50;5.80;;;1.43;;
3779;SDS011;1905;52.482;9.802;2024-03-23T11:53:20;8.43;;;1.77;;
3779;SDS011;1905;52.482;9.802;2024-03-23T11:55:52;6.93;;;1.70;;
3779;SDS011;1905;52.482;9.802;2024-03-23T11:58:20;7.73;;;1.30;;
3779;SDS011;1905;52.482;9.802;2024-03-23T12:00:56;7.40;;;1.70;;
3779;SDS011;1905;52.482;9.802;2024-03-23T12:03:23;5.50;;;1.00;;
3779;SDS011;1905;52.482;9.802;2024-03-23T12:05:57;6.77;;;1.20;;
3779;SDS011;1905;52.482;9.802;2024-03-23T12:08:32;6.07;;;1.40;;
3779;SDS011;1905;52.482;9.802;2024-03-23T12:11:11;9.20;;;1.20;;
3779;SDS011;1905;52.482;9.802;2024-03-23T12:13:39;7.03;;;1.27;;
3779;SDS011;1905;52.482;9.802;2024-03-23T12:16:18;6.20;;;1.47;;
3779;SDS011;1905;52.482;9.802;2024-03-23T12:18:46;10.00;;;3.33;;
3779;SDS011;1905;52.482;9.802;2024-03-23T12:21:15;6.93;;;1.40;;
3779;SDS011;1905;52.482;9.802;2024-03-23T12:23:42;5.90;;;1.40;;
3779;SDS011;1905;52.482;9.802;2024-03-23T12:26:12;8.97;;;2.60;;
3779;SDS011;1905;52.482;9.802;2024-03-23T12:28:38;6.47;;;1.30;;
3779;SDS011;1905;52.482;9.802;2024-03-23T12:31:08;8.03;;;2.20;;
3779;SDS011;1905;52.482;9.802;2024-03-23T12:33:34;8.20;;;2.07;;
3779;SDS011;1905;52.482;9.802;2024-03-23T12:36:01;6.30;;;1.60;;
3779;SDS011;1905;52.482;9.802;2024-03-23T12:38:27;8.40;;;1.80;;
3779;SDS011;1905;52.482;9.802;2024-03-23T12:40:53;8.20;;;2.40;;
3779;SDS011;1905;52.482;9.802;2024-03-23T12:43:19;7.10;;;2.43;;
3779;SDS011;1905;52.482;9.802;2024-03-23T12:45:47;6.63;;;1.60;;
3779;SDS011;1905;52.482;9.802;2024-03-23T12:48:17;7.47;;;2.30;;
3779;SDS011;1905;52.482;9.802;2024-03-23T12:50:44;7.30;;;1.90;;
3779;SDS011;1905;52.482;9.802;2024-03-23T12:53:09;6.23;;;1.70;;
3779;SDS011;1905;52.482;9.802;2024-03-23T12:55:37;7.27;;;2.20;;
3779;SDS011;1905;52.482;9.802;2024-03-23T12:58:03;9.20;;;2.07;;
3779;SDS011;1905;52.482;9.802;2024-03-23T13:00:31;8.83;;;2.00;;
3779;SDS011;1905;52.482;9.802;2024-03-23T13:02:57;10.90;;;2.60;;
3779;SDS011;1905;52.482;9.802;2024-03-23T13:05:24;8.27;;;1.80;;
3779;SDS011;1905;52.482;9.802;2024-03-23T13:07:50;7.67;;;2.23;;
3779;SDS011;1905;52.482;9.802;2024-03-23T13:10:17;7.23;;;2.37;;
3779;SDS011;1905;52.482;9.802;2024-03-23T13:12:43;7.00;;;2.30;;
3779;SDS011;1905;52.482;9.802;2024-03-23T13:15:10;6.80;;;2.13;;
3779;SDS011;1905;52.482;9.802;2024-03-23T13:17:36;7.53;;;1.50;;
3779;SDS011;1905;52.482;9.802;2024-03-23T13:20:03;7.40;;;1.93;;
3779;SDS011;1905;52.482;9.802;2024-03-23T13:22:30;9.30;;;1.70;;
3779;SDS011;1905;52.482;9.802;2024-03-23T13:24:57;7.10;;;1.90;;
3779;SDS011;1905;52.482;9.802;2024-03-23T13:27:25;6.90;;;1.57;;
3779;SDS011;1905;52.482;9.802;2024-03-23T13:29:52;6.70;;;1.43;;
3779;SDS011;1905;52.482;9.802;2024-03-23T13:32:18;6.50;;;1.93;;
3779;SDS011;1905;52.482;9.802;2024-03-23T13:34:45;6.70;;;1.63;;
3779;SDS011;1905;52.482;9.802;2024-03-23T13:37:16;7.33;;;1.80;;
3779;SDS011;1905;52.482;9.802;2024-03-23T13:39:43;11.43;;;2.13;;
3779;SDS011;1905;52.482;9.802;2024-03-23T13:42:09;7.50;;;1.77;;
3779;SDS011;1905;52.482;9.802;2024-03-23T13:44:38;6.20;;;2.10;;
3779;SDS011;1905;52.482;9.802;2024-03-23T13:47:04;7.60;;;1.60;;
3779;SDS011;1905;52.482;9.802;2024-03-23T13:49:31;10.90;;;2.37;;
3779;SDS011;1905;52.482;9.802;2024-03-23T13:51:58;7.40;;;1.70;;
3779;SDS011;1905;52.482;9.802;2024-03-23T13:54:25;9.83;;;1.93;;
3779;SDS011;1905;52.482;9.802;2024-03-23T13:56:53;6.70;;;1.60;;
3779;SDS011;1905;52.482;9.802;2024-03-23T13:59:21;7.07;;;1.90;;
3779;SDS011;1905;52.482;9.802;2024-03-23T14:01:49;10.23;;;2.30;;
3779;SDS011;1905;52.482;9.802;2024-03-23T14:04:16;11.43;;;2.30;;
3779;SDS011;1905;52.482;9.802;2024-03-23T14:06:43;8.90;;;2.70;;
3779;SDS011;1905;52.482;9.802;2024-03-23T14:09:11;9.70;;;1.90;;
3779;SDS011;1905;52.482;9.802;2024-03-23T14:11:39;8.10;;;2.50;;
3779;SDS011;1905;52.482;9.802;2024-03-23T14:14:07;8.00;;;2.33;;
3779;SDS011;1905;52.482;9.802;2024-03-23T14:16:35;8.23;;;2.23;;
3779;SDS011;1905;52.482;9.802;2024-03-23T14:19:03;7.77;;;2.27;;
3779;SDS011;1905;52.482;9.802;2024-03-23T14:21:31;10.20;;;2.27;;
3779;SDS011;1905;52.482;9.802;2024-03-23T14:24:00;6.53;;;1.70;;
3779;SDS011;1905;52.482;9.802;2024-03-23T14:26:26;8.30;;;2.20;;
3779;SDS011;1905;52.482;9.802;2024-03-23T14:28:54;10.20;;;2.50;;
3779;SDS011;1905;52.482;9.802;2024-03-23T14:31:20;6.87;;;2.00;;
3779;SDS011;1905;52.482;9.802;2024-03-23T14:33:47;7.90;;;2.00;;
3779;SDS011;1905;52.482;9.802;2024-03-23T14:36:14;9.50;;;1.90;;
3779;SDS011;1905;52.482;9.802;2024-03-23T14:38:41;10.90;;;1.70;;
3779;SDS011;1905;52.482;9.802;2024-03-23T14:41:07;8.00;;;2.00;;
3779;SDS011;1905;52.482;9.802;2024-03-23T14:43:34;8.27;;;1.70;;
3779;SDS011;1905;52.482;9.802;2024-03-23T14:46:22;7.40;;;1.67;;
3779;SDS011;1905;52.482;9.802;2024-03-23T14:48:49;6.20;;;1.40;;
3779;SDS011;1905;52.482;9.802;2024-03-23T14:51:15;8.00;;;1.60;;
3779;SDS011;1905;52.482;9.802;2024-03-23T14:53:45;9.67;;;1.33;;
3779;SDS011;1905;52.482;9.802;2024-03-23T14:56:11;5.50;;;0.93;;
3779;SDS011;1905;52.482;9.802;2024-03-23T14:58:41;5.70;;;1.10;;
3779;SDS011;1905;52.482;9.802;2024-03-23T15:01:08;6.30;;;1.07;;
3779;SDS011;1905;52.482;9.802;2024-03-23T15:03:38;5.33;;;1.00;;
3779;SDS011;1905;52.482;9.802;2024-03-23T15:06:05;6.77;;;1.20;;
3779;SDS011;1905;52.482;9.802;2024-03-23T15:08:34;9.23;;;1.47;;
3779;SDS011;1905;52.482;9.802;2024-03-23T15:11:01;5.70;;;1.23;;
3779;SDS011;1905;52.482;9.802;2024-03-23T15:13:37;7.20;;;1.30;;
3779;SDS011;1905;52.482;9.802;2024-03-23T15:16:04;6.40;;;1.50;;
3779;SDS011;1905;52.482;9.802;2024-03-23T15:18:32;7.70;;;1.10;;
3779;SDS011;1905;52.482;9.802;2024-03-23T15:21:01;6.77;;;1.50;;
3779;SDS011;1905;52.482;9.802;2024-03-23T15:23:31;6.60;;;1.23;;
3779;SDS011;1905;52.482;9.802;2024-03-23T15:26:01;5.30;;;1.00;;
3779;SDS011;1905;52.482;9.802;2024-03-23T15:28:29;7.60;;;1.00;;
3779;SDS011;1905;52.482;9.802;2024-03-23T15:31:06;5.43;;;1.07;;
3779;SDS011;1905;52.482;9.802;2024-03-23T15:33:35;7.33;;;1.37;;
3779;SDS011;1905;52.482;9.802;2024-03-23T15:36:02;10.43;;;1.40;;
3779;SDS011;1905;52.482;9.802;2024-03-23T15:38:31;8.87;;;1.50;;
3779;SDS011;1905;52.482;9.802;2024-03-23T15:40:57;7.67;;;1.40;;
3779;SDS011;1905;52.482;9.802;2024-03-23T15:43:25;7.43;;;1.47;;
3779;SDS011;1905;52.482;9.802;2024-03-23T15:48:23;6.33;;;1.17;;
3779;SDS011;1905;52.482;9.802;2024-03-23T15:50:50;6.50;;;1.50;;
3779;SDS011;1905;52.482;9.802;2024-03-23T15:53:22;5.90;;;1.27;;
3779;SDS011;1905;52.482;9.802;2024-03-23T15:55:56;7.63;;;1.60;;
3779;SDS011;1905;52.482;9.802;2024-03-23T15:58:27;8.13;;;1.77;;
3779;SDS011;1905;52.482;9.802;2024-03-23T16:00:57;6.97;;;1.70;;
3779;SDS011;1905;52.482;9.802;2024-03-23T16:03:25;5.90;;;1.20;;
3779;SDS011;1905;52.482;9.802;2024-03-23T16:05:55;6.10;;;1.80;;
3779;SDS011;1905;52.482;9.802;2024-03-23T16:08:24;6.77;;;1.50;;
3779;SDS011;1905;52.482;9.802;2024-03-23T16:10:51;7.60;;;2.20;;
3779;SDS011;1905;52.482;9.802;2024-03-23T16:13:19;7.03;;;1.80;;
3779;SDS011;1905;52.482;9.802;2024-03-23T16:15:45;5.90;;;1.33;;
3779;SDS011;1905;52.482;9.802;2024-03-23T16:18:21;7.43;;;1.37;;